Time;durP1;ratioP1;P1;durP2;ratioP2;P2;SDS_P1;SDS_P2;PMS_P1;PMS_P2;Temp;Humidity;BMP_temperature;BMP_pressure;BME280_temperature;BME280_humidity;BME280_pressure;Samples;Min_cycle;Max_cycle;Signal;HPM_P1;HPM_P2
2023/01/17 00:01:28;;;;;;;8.40;1.92;;;;;;;-1.64;71.79;97387.16;5041986;28;20550;-48
2023/01/17 00:12:14;;;;;;;5.45;2.15;;;;;;;-1.66;72.14;97386.28;5030978;28;20061;-48
2023/01/17 00:14:41;;;;;;;5.93;2.17;;;;;;;-1.66;72.33;97378.66;5046572;28;20053;-48
2023/01/17 00:17:08;;;;;;;7.70;3.78;;;;;;;-1.67;71.92;97374.44;5044865;28;20053;-48
2023/01/17 01:33:52;;;;;;;6.10;2.10;;;;;;;-1.90;72.47;97374.38;5037988;28;20072;-47
2023/01/17 01:36:20;;;;;;;;;;;;;;;-1.94;73.08;97368.41;5038288;28;20049;-49
2023/01/17 01:38:49;;;;;;;3.97;1.65;;;;;;;-1.94;72.24;97373.50;5037568;28;19975;-48
2023/01/17 01:41:17;;;;;;;5.88;2.53;;;;;;;-1.96;72.81;97372.66;5037672;28;20049;-49
2023/01/17 01:43:49;;;;;;;10.40;2.35;;;;;;;-1.97;73.13;97365.88;5038153;28;20041;-49
2023/01/17 01:46:29;;;;;;;8.57;1.95;;;;;;;-1.98;72.22;97356.56;5039431;28;20132;-48
2023/01/17 01:49:02;;;;;;;5.28;2.35;;;;;;;-1.98;72.45;97356.56;5037034;28;20048;-48
2023/01/17 01:51:37;;;;;;;6.53;2.30;;;;;;;-1.99;72.99;97354.88;5036873;28;20041;-48
2023/01/17 01:54:10;;;;;;;5.22;2.15;;;;;;;-2.00;72.70;97355.69;5029271;28;20049;-49
2023/01/17 01:56:38;;;;;;;4.20;1.63;;;;;;;-2.02;72.57;97355.72;5024524;28;20163;-48
2023/01/17 01:59:08;;;;;;;6.28;2.13;;;;;;;-2.03;72.47;97364.16;5007057;28;20111;-49
2023/01/17 02:01:35;;;;;;;4.70;2.10;;;;;;;-2.04;72.31;97371.75;5021935;28;20064;-48
2023/01/17 02:04:03;;;;;;;4.40;1.88;;;;;;;-2.07;72.04;97365.84;5024289;28;20487;-50
2023/01/17 02:06:36;;;;;;;3.35;1.75;;;;;;;-2.09;72.13;97372.56;5025012;28;20053;-49
2023/01/17 02:09:07;;;;;;;4.85;2.75;;;;;;;-2.12;72.39;97372.59;5024832;28;20423;-48
2023/01/17 02:11:37;;;;;;;5.28;2.60;;;;;;;-2.15;72.85;97354.81;5024450;28;20049;-49
2023/01/17 02:14:04;;;;;;;5.25;2.30;;;;;;;-2.18;73.05;97359.88;5020835;28;20096;-49
2023/01/17 02:33:20;;;;;;;7.10;2.53;;;;;;;-2.27;73.30;97349.69;5100475;27;20779;-48
2023/01/17 02:38:38;;;;;;;9.45;4.25;;;;;;;-1.94;71.47;97356.59;5037911;27;20409;-49
2023/01/17 02:41:12;;;;;;;9.93;3.00;;;;;;;-2.12;73.03;97362.44;5013981;28;20097;-47
2023/01/17 02:43:40;;;;;;;5.43;3.00;;;;;;;-2.21;72.67;97344.63;5017613;28;20077;-48
2023/01/17 02:46:06;;;;;;;4.72;2.25;;;;;;;-2.23;72.54;97348.88;5031426;28;20052;-48
2023/01/17 02:48:36;;;;;;;3.88;2.17;;;;;;;-2.27;73.14;97349.69;5019499;28;20077;-48
2023/01/17 02:57:09;;;;;;;5.57;2.35;;;;;;;-2.33;72.57;97351.34;5020165;28;20416;-47
2023/01/17 03:05:01;;;;;;;4.90;1.92;;;;;;;-2.41;72.06;97341.97;5028194;28;20411;-49
2023/01/17 03:07:30;;;;;;;7.70;1.95;;;;;;;-2.46;73.01;97345.34;4999955;28;20137;-47
2023/01/17 03:10:00;;;;;;;5.97;2.30;;;;;;;-2.47;73.24;97336.03;4999588;28;20073;-48
2023/01/17 03:12:31;;;;;;;5.78;1.90;;;;;;;-2.49;72.58;97329.28;5001552;28;20133;-48
2023/01/17 03:14:58;;;;;;;;;;;;;;;-2.53;72.43;97330.09;4998117;28;20054;-49
2023/01/17 03:17:30;;;;;;;6.68;1.52;;;;;;;-2.54;72.39;97330.94;5002361;28;19922;-47
2023/01/17 03:19:57;;;;;;;2.92;1.48;;;;;;;-2.58;73.43;97325.00;4994156;28;20050;-48
2023/01/17 03:22:24;;;;;;;4.82;2.38;;;;;;;-2.59;73.17;97328.38;4998702;28;20565;-47
2023/01/17 03:24:51;;;;;;;5.50;2.20;;;;;;;-2.64;72.11;97325.81;4998132;28;20077;-47
2023/01/17 03:27:17;;;;;;;6.57;2.35;;;;;;;-2.64;72.34;97323.28;4996827;28;20069;-49
2023/01/17 03:29:44;;;;;;;9.57;2.35;;;;;;;-2.67;73.42;97320.72;4999399;28;20054;-49
2023/01/17 03:32:10;;;;;;;7.15;1.70;;;;;;;-2.69;73.49;97322.41;4997094;28;20050;-48
2023/01/17 03:34:37;;;;;;;8.48;2.65;;;;;;;-2.69;72.37;97324.94;4999837;28;20049;-51
2023/01/17 03:37:04;;;;;;;9.55;2.83;;;;;;;-2.71;73.37;97330.00;4998609;28;20105;-50
2023/01/17 03:39:30;;;;;;;5.10;2.03;;;;;;;-2.71;73.07;97329.13;4996020;28;20052;-48
2023/01/17 03:41:57;;;;;;;3.72;2.10;;;;;;;-2.73;72.44;97330.81;4997957;28;20065;-48
2023/01/17 03:44:24;;;;;;;5.88;2.13;;;;;;;-2.74;73.36;97326.56;4997175;28;20781;-49
2023/01/17 03:46:50;;;;;;;5.60;2.08;;;;;;;-2.79;73.36;97331.63;4995440;28;20042;-48
2023/01/17 03:49:17;;;;;;;3.60;1.60;;;;;;;-2.84;72.59;97329.06;4997565;28;20097;-47
2023/01/17 03:51:43;;;;;;;8.73;2.53;;;;;;;-2.87;73.04;97326.50;4994448;28;20081;-49
2023/01/17 03:54:10;;;;;;;7.63;2.42;;;;;;;-2.89;72.55;97318.06;4998933;28;20050;-49
2023/01/17 03:56:37;;;;;;;5.32;2.40;;;;;;;-2.90;73.41;97321.41;4997950;28;20517;-48
2023/01/17 03:59:03;;;;;;;3.30;1.75;;;;;;;-2.91;73.56;97321.41;4994720;28;20112;-48
2023/01/17 04:01:30;;;;;;;5.15;1.70;;;;;;;-2.93;72.49;97323.94;5006380;28;20065;-47
2023/01/17 04:03:57;;;;;;;4.88;2.47;;;;;;;-2.94;73.32;97322.22;5015978;28;20065;-48
2023/01/17 04:06:24;;;;;;;4.95;2.15;;;;;;;-2.95;73.63;97325.59;5021655;28;20053;-48
2023/01/17 04:08:50;;;;;;;6.57;2.28;;;;;;;-2.95;73.19;97325.59;5019024;28;20038;-47
2023/01/17 04:11:17;;;;;;;5.80;2.05;;;;;;;-2.96;73.46;97336.56;5015161;28;20045;-47
2023/01/17 04:13:44;;;;;;;4.65;2.33;;;;;;;-2.98;72.37;97325.56;5016833;28;20046;-48
2023/01/17 04:16:14;;;;;;;6.15;1.92;;;;;;;-3.01;73.50;97325.56;5002521;28;20081;-48
2023/01/17 04:18:41;;;;;;;5.28;2.45;;;;;;;-3.05;73.47;97324.69;5001653;28;21024;-49
2023/01/17 04:21:07;;;;;;;4.28;2.20;;;;;;;-3.07;72.84;97325.50;5005314;28;20085;-48
2023/01/17 04:23:34;;;;;;;7.28;2.28;;;;;;;-3.10;72.91;97332.22;4999806;28;20129;-48
2023/01/17 04:26:02;;;;;;;7.07;2.33;;;;;;;-3.12;72.58;97330.53;5004571;28;20065;-47
2023/01/17 04:28:30;;;;;;;5.10;2.15;;;;;;;-3.14;73.72;97325.44;5003670;28;20037;-47
2023/01/17 04:30:58;;;;;;;4.28;1.90;;;;;;;-3.17;73.36;97330.50;5002641;28;20060;-47
2023/01/17 04:33:25;;;;;;;6.80;2.15;;;;;;;-3.17;73.17;97330.50;4998682;28;20045;-48
2023/01/17 04:35:53;;;;;;;4.70;2.20;;;;;;;-3.18;73.62;97323.72;5008372;28;20046;-50
2023/01/17 04:38:20;;;;;;;5.50;2.50;;;;;;;-3.19;73.53;97327.09;4999956;28;20038;-49
2023/01/17 04:40:47;;;;;;;7.10;2.40;;;;;;;-3.19;72.92;97333.84;5001855;28;20705;-48
2023/01/17 04:43:15;;;;;;;5.55;2.40;;;;;;;-3.22;72.67;97332.13;4997257;28;20792;-48
2023/01/17 04:45:42;;;;;;;4.35;1.63;;;;;;;-3.23;73.91;97321.19;5004208;28;20073;-48
2023/01/17 04:48:11;;;;;;;7.88;2.70;;;;;;;-3.24;73.72;97321.16;5003765;28;20100;-49
2023/01/17 04:50:38;;;;;;;8.10;2.20;;;;;;;-3.25;73.53;97327.91;5001146;28;20069;-47
2023/01/17 04:53:05;;;;;;;5.55;1.88;;;;;;;-3.25;73.88;97316.91;5002831;28;20132;-49
2023/01/17 04:55:32;;;;;;;4.85;1.60;;;;;;;-3.25;73.61;97324.50;5005055;28;20160;-48
2023/01/17 04:57:58;;;;;;;5.25;2.95;;;;;;;-3.25;72.74;97332.09;5003253;28;20048;-48
2023/01/17 05:00:25;;;;;;;7.80;2.80;;;;;;;-3.28;73.78;97335.47;5002915;28;20057;-49
2023/01/17 05:02:52;;;;;;;6.55;2.20;;;;;;;-3.28;73.65;97337.16;5000089;28;20060;-48
2023/01/17 05:05:19;;;;;;;9.05;2.15;;;;;;;-3.31;72.75;97332.06;5001635;28;20069;-47
2023/01/17 05:07:54;;;;;;;9.05;2.40;;;;;;;-3.34;73.89;97337.97;5005045;28;20084;-48
2023/01/17 05:10:21;;;;;;;6.72;2.55;;;;;;;-3.37;73.17;97338.75;5004982;28;20057;-48
2023/01/17 05:12:57;;;;;;;6.63;2.40;;;;;;;-3.38;73.38;97341.31;5001438;28;20130;-49
2023/01/17 05:15:25;;;;;;;9.15;3.22;;;;;;;-3.40;73.43;97341.28;5002979;28;20132;-48
2023/01/17 05:17:53;;;;;;;4.43;2.05;;;;;;;-3.41;73.98;97347.16;5003329;28;20049;-47
2023/01/17 05:20:22;;;;;;;9.02;2.40;;;;;;;-3.42;73.16;97345.47;5005766;28;20045;-48
2023/01/17 05:22:55;;;;;;;3.47;1.92;;;;;;;-3.42;73.24;97339.53;5001614;28;20049;-47
2023/01/17 05:25:24;;;;;;;4.00;1.77;;;;;;;-3.46;73.43;97353.88;5001538;28;20058;-47
2023/01/17 05:27:51;;;;;;;4.22;2.00;;;;;;;-3.46;73.98;97351.34;4999896;28;20050;-48
2023/01/17 05:30:19;;;;;;;6.60;2.38;;;;;;;-3.47;73.65;97342.06;5001938;28;20054;-48
2023/01/17 05:32:50;;;;;;;8.65;3.15;;;;;;;-3.49;73.61;97348.75;5003140;28;20062;-48
2023/01/17 05:35:19;;;;;;;6.15;2.53;;;;;;;-3.50;74.05;97352.13;5004502;28;20393;-48
2023/01/17 05:37:48;;;;;;;6.38;1.80;;;;;;;-3.52;73.74;97347.06;5002259;28;20054;-48
2023/01/17 05:40:20;;;;;;;3.20;1.52;;;;;;;-3.52;73.31;97346.19;5002096;28;20140;-48
2023/01/17 05:42:49;;;;;;;8.10;2.38;;;;;;;-3.51;74.13;97350.44;4999169;28;20062;-48
2023/01/17 05:45:18;;;;;;;4.90;1.90;;;;;;;-3.51;74.21;97358.03;5001742;28;20065;-48
2023/01/17 05:47:46;;;;;;;6.03;3.00;;;;;;;-3.52;74.19;97354.66;4997965;28;20058;-48
2023/01/17 05:50:18;;;;;;;3.75;2.13;;;;;;;-3.53;73.53;97358.03;5000139;28;20146;-50
2023/01/17 05:52:51;;;;;;;5.85;1.83;;;;;;;-3.55;73.83;97349.56;4999375;28;20077;-50
2023/01/17 05:55:19;;;;;;;8.15;2.28;;;;;;;-3.58;73.87;97354.56;5003414;28;20100;-48
2023/01/17 05:57:45;;;;;;;5.50;1.73;;;;;;;-3.59;73.64;97352.06;5000673;28;20073;-49
2023/01/17 06:00:14;;;;;;;4.80;2.10;;;;;;;-3.60;74.06;97361.31;5003112;28;20104;-47
2023/01/17 06:02:40;;;;;;;3.22;1.70;;;;;;;-3.61;73.70;97355.41;5002340;28;20103;-48
2023/01/17 06:05:08;;;;;;;5.70;2.03;;;;;;;-3.58;73.40;97359.63;5003445;28;20705;-47
2023/01/17 06:07:34;;;;;;;4.65;2.17;;;;;;;-3.59;74.37;97357.94;5005408;28;20057;-49
2023/01/17 06:10:01;;;;;;;8.95;2.33;;;;;;;-3.59;74.27;97360.47;5000946;28;20042;-47
2023/01/17 06:12:28;;;;;;;7.07;2.35;;;;;;;-3.58;73.99;97358.81;4999183;28;20041;-48
2023/01/17 06:14:55;;;;;;;4.05;1.80;;;;;;;-3.59;73.72;97362.19;5001284;28;20053;-47
2023/01/17 06:17:21;;;;;;;6.22;1.73;;;;;;;-3.59;73.76;97367.25;5004002;28;20108;-48
2023/01/17 06:19:48;;;;;;;9.82;3.45;;;;;;;-3.63;73.88;97367.19;5003145;28;20062;-47
2023/01/17 06:22:15;;;;;;;4.25;1.98;;;;;;;-3.64;74.21;97354.53;5002382;28;20061;-50
2023/01/17 06:24:41;;;;;;;5.70;2.30;;;;;;;-3.66;73.47;97357.03;5003091;28;20421;-47
2023/01/17 06:27:09;;;;;;;7.20;2.70;;;;;;;-3.68;73.55;97356.16;4996515;28;20140;-47
2023/01/17 06:29:36;;;;;;;6.97;2.85;;;;;;;-3.69;74.08;97357.00;5000929;28;20062;-49
2023/01/17 06:32:03;;;;;;;8.00;2.30;;;;;;;-3.70;73.57;97364.56;5003772;28;20561;-48
2023/01/17 06:34:30;;;;;;;4.40;2.78;;;;;;;-3.71;74.04;97368.81;5000735;28;20042;-48
2023/01/17 06:36:57;;;;;;;8.05;2.67;;;;;;;-3.71;73.27;97363.75;5003443;28;20041;-48
2023/01/17 06:39:24;;;;;;;11.13;2.58;;;;;;;-3.71;73.48;97363.75;4997151;28;20066;-47
2023/01/17 06:41:50;;;;;;;5.65;2.10;;;;;;;-3.73;73.48;97360.34;5000910;28;20123;-49
2023/01/17 06:44:17;;;;;;;4.55;2.50;;;;;;;-3.73;74.03;97362.88;4999847;28;20046;-48
2023/01/17 06:46:46;;;;;;;8.30;2.92;;;;;;;-3.74;73.95;97359.47;4999732;28;20084;-49
2023/01/17 06:49:13;;;;;;;7.65;3.10;;;;;;;-3.74;73.58;97364.53;5000401;28;20533;-48
2023/01/17 06:51:40;;;;;;;5.53;2.80;;;;;;;-3.74;74.13;97361.19;5005710;28;20049;-48
2023/01/17 06:54:09;;;;;;;4.40;1.98;;;;;;;-3.74;74.56;97359.47;5004471;28;20046;-48
2023/01/17 06:56:36;;;;;;;9.55;2.00;;;;;;;-3.75;73.62;97354.44;4996304;28;20045;-48
2023/01/17 06:59:03;;;;;;;4.78;2.03;;;;;;;-3.75;74.34;97357.78;5001294;28;20053;-48
2023/01/17 07:01:30;;;;;;;5.15;2.25;;;;;;;-3.72;74.56;97356.97;4995782;28;20049;-49
2023/01/17 07:03:57;;;;;;;11.35;3.40;;;;;;;-3.71;73.97;97358.69;4997367;28;20046;-48
2023/01/17 07:06:27;;;;;;;15.85;5.75;;;;;;;-3.68;74.16;97358.69;5001988;28;20049;-48
2023/01/17 07:08:55;;;;;;;12.25;4.72;;;;;;;-3.67;74.42;97362.94;5000614;28;20073;-48
2023/01/17 07:11:22;;;;;;;7.68;3.67;;;;;;;-3.64;74.85;97370.53;5000229;28;20504;-47
2023/01/17 07:13:49;;;;;;;8.80;4.10;;;;;;;-3.66;73.67;97372.22;5000066;28;20046;-48
2023/01/17 07:16:16;;;;;;;8.95;3.08;;;;;;;-3.68;73.72;97371.34;5000487;28;20148;-49
2023/01/17 07:18:42;;;;;;;3.80;2.22;;;;;;;-3.70;73.76;97365.44;4999578;28;20084;-47
2023/01/17 07:21:12;;;;;;;8.30;2.65;;;;;;;-3.72;73.72;97367.09;4993431;28;20137;-48
2023/01/17 07:23:39;;;;;;;3.10;1.48;;;;;;;-3.74;74.64;97367.06;5000078;28;20050;-49
2023/01/17 07:26:06;;;;;;;10.48;2.03;;;;;;;-3.74;73.65;97368.75;4999074;28;20513;-49
2023/01/17 07:28:33;;;;;;;4.40;2.53;;;;;;;-3.74;74.48;97374.66;4998351;28;20077;-47
2023/01/17 07:31:04;;;;;;;5.32;2.00;;;;;;;-3.75;73.93;97372.13;5001170;28;20096;-50
2023/01/17 07:33:31;;;;;;;4.00;2.25;;;;;;;-3.74;74.76;97368.75;4996463;28;20153;-49
2023/01/17 07:36:02;;;;;;;6.22;2.63;;;;;;;-3.73;73.90;97362.88;5004176;28;20497;-48
2023/01/17 07:38:28;;;;;;;2.78;1.23;;;;;;;-3.74;74.66;97378.88;4996008;28;20133;-48
2023/01/17 07:40:58;;;;;;;3.90;2.42;;;;;;;-3.71;74.02;97378.06;4999665;28;20045;-48
2023/01/17 07:43:25;;;;;;;5.35;2.33;;;;;;;-3.71;74.26;97378.91;5002490;28;20041;-48
2023/01/17 07:45:52;;;;;;;6.05;2.20;;;;;;;-3.71;75.14;97378.06;5002583;28;20042;-48
2023/01/17 07:48:22;;;;;;;9.45;2.83;;;;;;;-3.71;74.58;97378.91;4999995;28;20060;-49
2023/01/17 07:50:52;;;;;;;6.90;2.85;;;;;;;-3.71;73.97;97378.91;5008983;28;20054;-47
2023/01/17 07:53:19;;;;;;;5.80;2.35;;;;;;;-3.71;74.84;97389.03;5003614;28;20576;-48
2023/01/17 07:55:46;;;;;;;7.20;2.70;;;;;;;-3.71;74.75;97386.50;4999344;28;20119;-51
2023/01/17 07:58:13;;;;;;;9.73;3.63;;;;;;;-3.71;74.96;97386.50;5001477;28;20042;-47
2023/01/17 08:00:43;;;;;;;6.32;3.65;;;;;;;-3.72;74.17;97389.84;5004954;28;20072;-51
2023/01/17 08:03:13;;;;;;;8.50;4.47;;;;;;;-3.71;75.16;97388.19;5001884;28;20085;-48
2023/01/17 08:05:43;;;;;;;5.80;3.35;;;;;;;-3.71;74.47;97399.16;4995490;28;20086;-49
2023/01/17 08:08:10;;;;;;;4.10;2.40;;;;;;;-3.70;75.17;97390.72;4999568;28;20124;-48
2023/01/17 08:10:36;;;;;;;5.75;3.03;;;;;;;-3.68;74.21;97394.13;4996159;28;20050;-48
2023/01/17 08:13:03;;;;;;;8.98;3.80;;;;;;;-3.66;74.25;97397.53;4999930;28;20070;-48
2023/01/17 08:15:30;;;;;;;6.65;3.13;;;;;;;-3.61;74.34;97398.41;4996060;28;20049;-49
2023/01/17 08:17:57;;;;;;;8.35;2.92;;;;;;;-3.56;74.87;97397.63;4992859;28;20050;-48
2023/01/17 08:20:24;;;;;;;9.50;3.10;;;;;;;-3.51;75.49;97412.03;4999858;28;20061;-52
2023/01/17 08:22:54;;;;;;;5.75;2.35;;;;;;;-3.42;75.09;97406.22;4995755;28;20395;-51
2023/01/17 08:25:23;;;;;;;6.18;2.92;;;;;;;-3.35;75.19;97407.13;4998962;28;20085;-51
2023/01/17 08:27:51;;;;;;;11.80;3.42;;;;;;;-3.23;74.95;97408.94;4996743;28;20056;-48
2023/01/17 08:30:17;;;;;;;8.13;3.28;;;;;;;-3.16;74.95;97397.19;4994163;28;20054;-51
2023/01/17 08:32:44;;;;;;;6.75;3.58;;;;;;;-3.12;74.58;97392.16;4992212;28;20112;-51
2023/01/17 08:35:11;;;;;;;11.07;3.47;;;;;;;-3.05;75.27;97390.53;4992774;28;20073;-48
2023/01/17 08:37:37;;;;;;;7.13;2.80;;;;;;;-2.95;75.24;97390.63;4997105;28;20077;-49
2023/01/17 08:40:06;;;;;;;9.80;4.25;;;;;;;-2.84;74.49;97389.00;4995506;28;20050;-49
2023/01/17 08:42:38;;;;;;;8.57;3.97;;;;;;;-2.72;75.33;97395.88;4991170;28;20081;-48
2023/01/17 08:45:06;;;;;;;7.25;3.03;;;;;;;-2.58;74.26;97394.28;4992749;28;20057;-50
2023/01/17 08:47:33;;;;;;;13.23;4.57;;;;;;;-2.32;75.31;97393.59;4991143;28;20417;-50
2023/01/17 08:50:00;;;;;;;12.27;5.50;;;;;;;-1.91;75.21;97401.41;4993296;28;20596;-51
2023/01/17 08:52:27;;;;;;;9.95;4.55;;;;;;;-1.30;75.37;97412.63;4994057;28;20062;-48
2023/01/17 08:54:54;;;;;;;7.20;3.97;;;;;;;-0.64;74.91;97415.25;4989769;28;20110;-48
2023/01/17 08:57:21;;;;;;;11.85;4.07;;;;;;;-0.07;74.70;97419.41;4990520;28;20050;-50
2023/01/17 08:59:47;;;;;;;9.75;4.20;;;;;;;0.42;74.59;97430.28;4992912;28;20054;-50
2023/01/17 09:02:16;;;;;;;16.33;7.70;;;;;;;0.96;74.20;97429.16;4996556;28;20057;-49
2023/01/17 09:04:48;;;;;;;12.88;6.13;;;;;;;1.72;73.24;97430.25;5006617;28;20057;-49
2023/01/17 09:07:17;;;;;;;42.15;12.93;;;;;;;2.69;73.46;97429.19;4992459;28;20046;-49
2023/01/17 09:09:44;;;;;;;27.05;10.02;;;;;;;3.68;72.29;97428.59;4994279;28;20456;-51
2023/01/17 09:12:10;;;;;;;22.45;9.23;;;;;;;4.59;70.94;97426.03;4992604;28;20421;-51
2023/01/17 09:14:37;;;;;;;18.33;6.40;;;;;;;5.30;68.70;97430.47;4991819;28;20069;-51
2023/01/17 09:17:05;;;;;;;17.33;7.43;;;;;;;5.94;67.48;97433.22;4989562;28;20135;-50
2023/01/17 09:19:32;;;;;;;32.22;11.45;;;;;;;6.56;68.13;97432.38;4999793;28;20042;-51
2023/01/17 09:21:59;;;;;;;18.30;7.80;;;;;;;7.30;67.54;97438.78;4999193;28;20088;-51
2023/01/17 09:24:25;;;;;;;16.27;6.47;;;;;;;8.00;65.44;97445.16;4992332;28;20199;-51
2023/01/17 09:26:52;;;;;;;13.30;5.20;;;;;;;8.04;64.62;97434.66;4999429;28;20057;-50
2023/01/17 09:29:19;;;;;;;8.35;4.22;;;;;;;7.88;64.08;97439.53;4990741;28;20047;-51
2023/01/17 09:31:46;;;;;;;9.18;2.72;;;;;;;7.81;63.67;97435.47;4995334;28;20101;-53
2023/01/17 09:34:13;;;;;;;8.75;3.63;;;;;;;7.90;62.66;97436.91;4997384;28;20046;-49
2023/01/17 09:36:41;;;;;;;5.82;3.13;;;;;;;8.17;61.72;97436.84;4996104;28;20069;-51
2023/01/17 09:39:09;;;;;;;6.05;3.22;;;;;;;8.69;62.59;97435.88;4994374;28;20129;-53
2023/01/17 09:41:53;;;;;;;4.63;2.60;;;;;;;9.20;60.55;97430.53;4997475;28;20529;-54
2023/01/17 09:47:19;;;;;;;6.00;2.92;;;;;;;10.08;57.85;97440.75;5027182;27;20418;-52
2023/01/17 09:49:46;;;;;;;5.22;2.90;;;;;;;10.40;57.08;97441.09;5019010;28;20516;-51
2023/01/17 09:52:16;;;;;;;7.32;3.42;;;;;;;10.66;55.54;97436.53;5019307;28;20052;-51
2023/01/17 09:54:46;;;;;;;5.97;3.10;;;;;;;11.01;55.88;97434.09;5012766;28;20121;-52
2023/01/17 09:57:53;;;;;;;9.75;3.50;;;;;;;11.36;54.36;97442.84;5010541;28;20042;-51
2023/01/17 10:12:10;;;;;;;6.85;4.68;;;;;;;12.87;51.19;97447.44;5016339;28;20943;-54
2023/01/17 10:20:32;;;;;;;7.10;4.93;;;;;;;13.36;50.21;97455.16;5018677;28;20409;-50
2023/01/17 10:25:51;;;;;;;7.07;3.33;;;;;;;13.72;49.15;97473.16;5023838;28;20740;-50
2023/01/17 10:31:04;;;;;;;7.30;3.25;;;;;;;14.44;48.79;97474.22;5044354;28;20790;-53
2023/01/17 10:33:40;;;;;;;6.80;3.00;;;;;;;14.74;49.27;97478.50;5002312;28;20057;-54
2023/01/17 10:36:14;;;;;;;5.45;2.80;;;;;;;15.11;48.22;97471.03;4996352;28;21163;-53
2023/01/17 10:38:46;;;;;;;10.50;3.90;;;;;;;15.47;47.97;97481.00;5026090;28;20054;-52
2023/01/17 10:44:10;;;;;;;18.25;6.95;;;;;;;15.96;46.63;97484.81;5031794;27;20386;-53
2023/01/17 10:46:43;;;;;;;9.13;4.18;;;;;;;15.96;45.66;97486.56;5002592;28;20097;-52
2023/01/17 10:49:17;;;;;;;7.38;4.00;;;;;;;15.60;44.70;97484.47;4999913;28;20046;-54
2023/01/17 10:54:52;;;;;;;7.68;3.50;;;;;;;14.27;45.59;97486.47;5069354;27;20391;-53
2023/01/17 10:57:22;;;;;;;9.68;3.40;;;;;;;13.41;45.42;97487.84;5028707;28;20076;-52
2023/01/17 10:59:50;;;;;;;7.40;4.20;;;;;;;12.62;47.22;97485.09;5027478;28;20483;-51
2023/01/17 11:02:23;;;;;;;7.43;3.40;;;;;;;11.85;48.39;97485.47;5031108;28;20049;-53
2023/01/17 11:04:53;;;;;;;7.38;3.15;;;;;;;11.24;47.54;97481.41;5026285;28;20045;-53
2023/01/17 11:09:58;;;;;;;9.88;5.05;;;;;;;10.00;49.40;97483.28;5035154;28;20394;-52
2023/01/17 11:15:21;;;;;;;11.27;6.50;;;;;;;9.22;48.28;97480.38;5028683;28;20893;-52
2023/01/17 11:17:52;;;;;;;9.27;4.97;;;;;;;8.34;50.24;97478.34;4994904;28;20058;-53
2023/01/17 11:20:37;;;;;;;9.45;3.53;;;;;;;7.79;51.11;97481.03;4995357;28;20046;-53
2023/01/17 11:25:49;;;;;;;10.10;2.80;;;;;;;7.15;53.17;97476.16;5015830;28;21161;-54
2023/01/17 11:28:34;;;;;;;8.57;4.32;;;;;;;6.77;52.82;97471.25;4996118;28;20133;-51
2023/01/17 11:31:08;;;;;;;6.97;4.60;;;;;;;6.64;53.72;97475.91;4994992;28;20560;-51
2023/01/17 11:36:20;;;;;;;5.07;3.10;;;;;;;6.22;54.35;97484.75;5053746;28;20743;-51
2023/01/17 11:41:34;;;;;;;7.05;4.90;;;;;;;5.76;56.74;97481.59;5062770;27;20422;-50
2023/01/17 11:44:02;;;;;;;;;;;;;;;5.40;57.59;97480.72;5043963;28;20092;-51
2023/01/17 11:46:28;;;;;;;14.35;9.10;;;;;;;5.41;57.89;97484.13;5087066;28;19932;-51
2023/01/17 11:48:58;;;;;;;6.45;2.50;;;;;;;5.37;58.21;97488.47;5079586;28;20616;-52
2023/01/17 11:56:45;;;;;;;36.08;13.68;;;;;;;5.48;58.31;97487.41;5051065;28;20400;-51
2023/01/17 12:10:14;;;;;;;14.82;5.78;;;;;;;4.58;59.66;97480.75;5039976;27;20399;-51
2023/01/17 12:15:52;;;;;;;8.18;3.65;;;;;;;4.40;60.06;97481.09;5051183;28;20392;-53
2023/01/17 12:18:45;;;;;;;23.75;9.77;;;;;;;4.36;59.98;97473.47;5008359;28;20050;-53
2023/01/17 12:21:22;;;;;;;4.10;1.98;;;;;;;4.25;60.75;97477.94;5008509;28;20054;-53
2023/01/17 12:26:55;;;;;;;7.75;4.53;;;;;;;3.93;61.03;97472.56;4997026;27;21093;-53
2023/01/17 12:34:49;;;;;;;8.43;2.83;;;;;;;3.60;62.57;97465.41;5036039;28;20410;-51
2023/01/17 12:37:23;;;;;;;6.43;2.85;;;;;;;3.55;62.35;97463.78;5009245;28;20892;-49
2023/01/17 12:39:58;;;;;;;7.53;2.85;;;;;;;3.46;62.15;97463.06;5012838;28;20049;-52
2023/01/17 12:42:34;;;;;;;6.25;2.60;;;;;;;3.33;63.17;97467.53;5046274;28;20638;-50
2023/01/17 12:45:08;;;;;;;10.45;3.25;;;;;;;3.26;62.80;97463.38;5004812;28;20513;-50
2023/01/17 12:47:42;;;;;;;9.85;3.45;;;;;;;3.25;63.22;97471.06;5016550;28;20489;-50
2023/01/17 12:52:57;;;;;;;7.00;2.75;;;;;;;3.24;63.07;97472.75;5034807;28;20402;-53
2023/01/17 12:56:03;;;;;;;8.73;3.40;;;;;;;3.17;62.99;97460.94;4997725;28;20048;-52
2023/01/17 12:58:38;;;;;;;7.28;2.75;;;;;;;3.05;64.00;97467.94;4989647;28;20078;-51
2023/01/17 13:01:17;;;;;;;9.45;3.38;;;;;;;3.00;63.63;97459.47;5006379;28;20752;-51
2023/01/17 13:06:34;;;;;;;7.95;3.05;;;;;;;2.96;64.17;97468.03;5037952;28;20393;-51
2023/01/17 13:09:03;;;;;;;8.05;2.88;;;;;;;2.93;63.71;97463.81;4999406;28;20054;-50
2023/01/17 13:14:10;;;;;;;8.35;4.47;;;;;;;2.91;63.81;97465.53;5024283;27;20402;-52
2023/01/17 13:16:58;;;;;;;6.82;4.07;;;;;;;2.91;64.04;97474.94;5004334;28;20050;-48
2023/01/17 13:19:39;;;;;;;8.27;3.30;;;;;;;2.83;63.48;97473.31;5001051;28;20090;-50
2023/01/17 13:22:09;;;;;;;3.35;1.40;;;;;;;2.73;63.96;97476.03;5001714;28;20664;-51
2023/01/17 13:24:50;;;;;;;8.60;3.72;;;;;;;2.66;64.25;97475.25;4999113;28;20112;-49
2023/01/17 13:35:42;;;;;;;8.95;1.80;;;;;;;2.42;64.95;97488.31;5006310;27;21005;-51
2023/01/17 13:41:44;;;;;;;5.55;2.20;;;;;;;2.33;65.23;97492.66;5017469;28;20400;-49
2023/01/17 13:44:20;;;;;;;5.90;1.95;;;;;;;2.32;65.99;97496.91;4999205;28;20370;-51
2023/01/17 13:47:27;;;;;;;6.18;2.30;;;;;;;2.23;66.29;97497.84;4991171;28;20078;-50
2023/01/17 13:49:55;;;;;;;5.50;2.30;;;;;;;2.16;66.50;97501.34;4991344;28;20066;-51
2023/01/17 13:55:01;;;;;;;6.03;2.28;;;;;;;2.09;66.87;97507.38;5029742;28;20395;-52
2023/01/17 13:57:33;;;;;;;4.75;1.58;;;;;;;2.06;65.89;97500.56;4996432;28;20050;-58
2023/01/17 14:02:57;;;;;;;4.55;1.45;;;;;;;2.00;67.31;97500.66;4999631;28;20751;-49
2023/01/17 14:08:20;;;;;;;7.35;1.75;;;;;;;1.95;67.35;97502.41;5027991;27;20943;-52
2023/01/17 14:10:51;;;;;;;2.75;1.10;;;;;;;1.85;67.87;97507.56;5013789;28;20494;-53
2023/01/17 14:13:36;;;;;;;8.40;2.47;;;;;;;1.85;68.07;97506.72;5016267;28;20535;-50
2023/01/17 14:16:25;;;;;;;4.35;1.80;;;;;;;1.83;66.94;97511.00;5015738;28;20050;-50
2023/01/17 14:18:54;;;;;;;3.90;1.88;;;;;;;1.85;67.00;97511.81;5027244;28;20437;-48
2023/01/17 14:26:44;;;;;;;5.95;3.72;;;;;;;1.80;68.15;97517.81;5022967;27;20426;-49
2023/01/17 14:29:51;;;;;;;8.43;3.85;;;;;;;1.79;67.69;97516.13;5017759;28;20046;-48
2023/01/17 14:32:36;;;;;;;7.55;3.63;;;;;;;1.79;66.91;97512.75;5013737;28;20132;-51
2023/01/17 14:35:22;;;;;;;6.00;3.58;;;;;;;1.76;67.96;97523.81;5010078;28;20042;-49
2023/01/17 14:37:51;;;;;;;5.43;2.70;;;;;;;1.74;68.18;97525.53;5012944;28;20073;-50
2023/01/17 14:40:25;;;;;;;6.72;3.15;;;;;;;1.74;68.29;97522.97;5026059;28;20084;-48
2023/01/17 14:43:09;;;;;;;7.57;3.63;;;;;;;1.71;68.36;97525.56;5031348;28;20054;-49
2023/01/17 14:45:36;;;;;;;4.68;3.22;;;;;;;1.68;68.77;97528.13;5016994;28;20045;-50
2023/01/17 14:48:06;;;;;;;6.90;3.35;;;;;;;1.69;67.53;97526.44;5007137;28;20050;-49
2023/01/17 14:50:38;;;;;;;6.80;3.45;;;;;;;1.62;68.93;97528.19;5028294;28;20140;-50
2023/01/17 14:55:52;;;;;;;5.80;2.03;;;;;;;1.61;68.66;97535.00;5021653;28;20431;-48
2023/01/17 14:58:22;;;;;;;5.57;2.13;;;;;;;1.57;68.52;97528.22;4992146;28;20054;-51
2023/01/17 15:00:52;;;;;;;4.18;1.55;;;;;;;1.53;68.73;97532.47;4993766;28;20154;-48
2023/01/17 15:03:19;;;;;;;6.95;2.38;;;;;;;1.55;68.73;97535.00;4991250;28;20046;-50
2023/01/17 15:05:48;;;;;;;6.07;1.77;;;;;;;1.53;68.83;97537.56;4994245;28;20053;-50
2023/01/17 15:08:18;;;;;;;5.95;2.35;;;;;;;1.48;68.76;97536.78;4993835;28;20038;-51
2023/01/17 15:10:50;;;;;;;5.10;1.92;;;;;;;1.49;70.04;97541.00;4995673;28;20151;-48
2023/01/17 15:13:22;;;;;;;5.43;1.75;;;;;;;1.47;68.72;97541.88;4996537;28;20077;-51
2023/01/17 15:18:54;;;;;;;5.03;2.65;;;;;;;1.40;70.13;97546.19;5027638;28;20411;-49
2023/01/17 15:21:25;;;;;;;20.48;6.13;;;;;;;1.39;68.85;97547.03;4989936;28;20069;-51
2023/01/17 15:23:55;;;;;;;7.32;4.13;;;;;;;1.35;69.44;97548.75;4980675;28;20560;-50
2023/01/17 15:26:25;;;;;;;7.07;2.67;;;;;;;1.32;70.25;97553.84;4981257;28;20042;-51
2023/01/17 15:28:54;;;;;;;8.63;4.18;;;;;;;1.29;70.11;97556.47;4982325;28;20066;-49
2023/01/17 15:34:05;;;;;;;16.13;5.65;;;;;;;1.22;69.19;97553.06;5045615;28;20390;-49
2023/01/17 15:36:33;;;;;;;15.10;5.03;;;;;;;1.21;68.96;97550.56;5000329;28;20053;-50
2023/01/17 15:39:02;;;;;;;23.50;7.53;;;;;;;1.18;69.19;97564.13;5005933;28;20064;-51